sensor_id;sensor_type;location;lat;lon;timestamp;pressure;altitude;pressure_sealevel;temperature;humidity
29467;BME280;60968;37.490;-122.288;2022-10-18T00:02:30;98824.91;;;18.91;65.80
29467;BME280;60968;37.490;-122.288;2022-10-18T00:05:31;98822.88;;;18.78;66.34
29467;BME280;60968;37.490;-122.288;2022-10-18T00:08:34;98826.59;;;18.74;67.57
29467;BME280;60968;37.490;-122.288;2022-10-18T00:11:35;98830.28;;;18.89;66.79
29467;BME280;60968;37.490;-122.288;2022-10-18T00:14:35;98818.94;;;18.87;66.91
29467;BME280;60968;37.490;-122.288;2022-10-18T00:17:37;98822.63;;;18.83;67.03
29467;BME280;60968;37.490;-122.288;2022-10-18T00:20:39;98811.47;;;18.78;67.20
29467;BME280;60968;37.490;-122.288;2022-10-18T00:23:39;98812.72;;;18.71;66.95
29467;BME280;60968;37.490;-122.288;2022-10-18T00:26:40;98812.16;;;18.64;67.23
29467;BME280;60968;37.490;-122.288;2022-10-18T00:29:41;98809.97;;;18.55;67.54
29467;BME280;60968;37.490;-122.288;2022-10-18T00:32:42;98815.84;;;18.42;67.96
29467;BME280;60968;37.490;-122.288;2022-10-18T00:35:44;98816.25;;;18.34;68.51
29467;BME280;60968;37.490;-122.288;2022-10-18T00:38:46;98806.94;;;18.27;68.81
29467;BME280;60968;37.490;-122.288;2022-10-18T00:41:48;98813.38;;;18.22;69.17
29467;BME280;60968;37.490;-122.288;2022-10-18T00:47:55;98806.44;;;18.02;70.02
29467;BME280;60968;37.490;-122.288;2022-10-18T00:50:58;98806.97;;;17.89;70.68
29467;BME280;60968;37.490;-122.288;2022-10-18T00:53:59;98810.03;;;17.80;71.10
29467;BME280;60968;37.490;-122.288;2022-10-18T00:57:00;98807.84;;;17.71;71.41
29467;BME280;60968;37.490;-122.288;2022-10-18T01:00:03;98812.69;;;17.61;71.80
29467;BME280;60968;37.490;-122.288;2022-10-18T01:03:05;98807.09;;;17.48;72.38
29467;BME280;60968;37.490;-122.288;2022-10-18T01:06:08;98811.16;;;17.36;72.76
29467;BME280;60968;37.490;-122.288;2022-10-18T01:09:14;98813.50;;;17.23;73.53
29467;BME280;60968;37.490;-122.288;2022-10-18T01:12:38;98808.47;;;17.17;74.42
29467;BME280;60968;37.490;-122.288;2022-10-18T01:15:55;98816.00;;;17.06;75.03
29467;BME280;60968;37.490;-122.288;2022-10-18T01:19:04;98812.91;;;16.96;75.26
29467;BME280;60968;37.490;-122.288;2022-10-18T01:22:22;98820.31;;;16.86;75.25
29467;BME280;60968;37.490;-122.288;2022-10-18T01:29:31;98822.34;;;16.59;76.40
29467;BME280;60968;37.490;-122.288;2022-10-18T01:32:43;98820.28;;;16.45;76.80
29467;BME280;60968;37.490;-122.288;2022-10-18T01:35:54;98817.25;;;16.34;77.34
29467;BME280;60968;37.490;-122.288;2022-10-18T01:38:59;98823.00;;;16.21;78.02
29467;BME280;60968;37.490;-122.288;2022-10-18T01:42:05;98818.91;;;16.14;78.64
29467;BME280;60968;37.490;-122.288;2022-10-18T01:45:07;98819.03;;;16.11;79.29
29467;BME280;60968;37.490;-122.288;2022-10-18T01:48:10;98823.50;;;16.09;79.66
29467;BME280;60968;37.490;-122.288;2022-10-18T01:51:12;98823.72;;;16.03;80.46
29467;BME280;60968;37.490;-122.288;2022-10-18T01:54:18;98826.41;;;16.01;80.98
29467;BME280;60968;37.490;-122.288;2022-10-18T01:57:38;98825.66;;;15.98;80.50
29467;BME280;60968;37.490;-122.288;2022-10-18T02:00:41;98825.72;;;15.96;80.44
29467;BME280;60968;37.490;-122.288;2022-10-18T02:03:44;98838.88;;;15.96;80.71
29467;BME280;60968;37.490;-122.288;2022-10-18T02:06:52;98835.47;;;15.94;81.09
29467;BME280;60968;37.490;-122.288;2022-10-18T02:13:37;98838.22;;;16.13;80.60
29467;BME280;60968;37.490;-122.288;2022-10-18T02:16:49;98838.13;;;16.16;80.75
29467;BME280;60968;37.490;-122.288;2022-10-18T02:19:53;98848.69;;;16.15;80.80
29467;BME280;60968;37.490;-122.288;2022-10-18T02:22:56;98853.97;;;16.13;80.47
29467;BME280;60968;37.490;-122.288;2022-10-18T02:25:59;98857.31;;;15.94;80.70
29467;BME280;60968;37.490;-122.288;2022-10-18T02:29:00;98861.28;;;15.83;81.77
29467;BME280;60968;37.490;-122.288;2022-10-18T02:38:26;98864.34;;;15.70;82.73
29467;BME280;60968;37.490;-122.288;2022-10-18T02:41:30;98876.00;;;15.63;82.91
29467;BME280;60968;37.490;-122.288;2022-10-18T02:44:32;98875.25;;;15.59;82.51
29467;BME280;60968;37.490;-122.288;2022-10-18T02:47:33;98875.25;;;15.59;82.41
29467;BME280;60968;37.490;-122.288;2022-10-18T02:50:34;98877.81;;;15.61;82.34
29467;BME280;60968;37.490;-122.288;2022-10-18T02:53:36;98882.16;;;15.62;81.93
29467;BME280;60968;37.490;-122.288;2022-10-18T02:56:37;98889.06;;;15.65;81.73
29467;BME280;60968;37.490;-122.288;2022-10-18T02:59:37;98882.09;;;15.64;81.83
29467;BME280;60968;37.490;-122.288;2022-10-18T03:02:38;98876.84;;;15.64;81.86
29467;BME280;60968;37.490;-122.288;2022-10-18T03:05:39;98867.31;;;15.61;82.65
29467;BME280;60968;37.490;-122.288;2022-10-18T03:08:40;98878.88;;;15.55;83.21
29467;BME280;60968;37.490;-122.288;2022-10-18T03:11:41;98881.69;;;15.51;84.44
29467;BME280;60968;37.490;-122.288;2022-10-18T03:14:42;98875.72;;;15.47;84.77
29467;BME280;60968;37.490;-122.288;2022-10-18T03:17:43;98875.72;;;15.47;85.59
29467;BME280;60968;37.490;-122.288;2022-10-18T03:20:43;98880.66;;;15.55;86.02
29467;BME280;60968;37.490;-122.288;2022-10-18T03:23:47;98877.41;;;15.48;86.59
29467;BME280;60968;37.490;-122.288;2022-10-18T03:26:47;98877.75;;;15.39;87.56
29467;BME280;60968;37.490;-122.288;2022-10-18T03:29:48;98880.59;;;15.33;88.18
29467;BME280;60968;37.490;-122.288;2022-10-18T03:32:49;98878.13;;;15.28;88.66
29467;BME280;60968;37.490;-122.288;2022-10-18T03:35:50;98886.91;;;15.27;89.23
29467;BME280;60968;37.490;-122.288;2022-10-18T03:38:51;98890.50;;;15.24;89.92
29467;BME280;60968;37.490;-122.288;2022-10-18T03:41:51;98895.06;;;15.19;90.01
29467;BME280;60968;37.490;-122.288;2022-10-18T03:44:52;98893.44;;;15.15;90.47
29467;BME280;60968;37.490;-122.288;2022-10-18T03:47:53;98882.13;;;15.13;90.45
29467;BME280;60968;37.490;-122.288;2022-10-18T03:50:54;98889.94;;;15.16;90.50
29467;BME280;60968;37.490;-122.288;2022-10-18T03:53:55;98893.50;;;15.14;90.32
29467;BME280;60968;37.490;-122.288;2022-10-18T03:56:56;98895.38;;;15.10;90.46
29467;BME280;60968;37.490;-122.288;2022-10-18T03:59:58;98889.34;;;15.08;90.02
29467;BME280;60968;37.490;-122.288;2022-10-18T04:02:58;98892.84;;;15.07;90.02
29467;BME280;60968;37.490;-122.288;2022-10-18T04:05:59;98890.41;;;15.02;89.89
29467;BME280;60968;37.490;-122.288;2022-10-18T04:09:00;98893.16;;;14.98;90.25
29467;BME280;60968;37.490;-122.288;2022-10-18T04:12:01;98886.28;;;14.95;90.04
29467;BME280;60968;37.490;-122.288;2022-10-18T04:15:02;98893.31;;;14.93;90.40
29467;BME280;60968;37.490;-122.288;2022-10-18T04:18:03;98891.72;;;14.89;90.67
29467;BME280;60968;37.490;-122.288;2022-10-18T04:21:04;98894.44;;;14.86;91.00
29467;BME280;60968;37.490;-122.288;2022-10-18T04:24:05;98905.84;;;14.85;91.23
29467;BME280;60968;37.490;-122.288;2022-10-18T04:27:06;98905.09;;;14.81;91.99
29467;BME280;60968;37.490;-122.288;2022-10-18T04:30:08;98910.44;;;14.78;92.30
29467;BME280;60968;37.490;-122.288;2022-10-18T04:33:09;98907.00;;;14.76;92.88
29467;BME280;60968;37.490;-122.288;2022-10-18T04:36:09;98911.47;;;14.74;93.18
29467;BME280;60968;37.490;-122.288;2022-10-18T04:39:10;98911.59;;;14.69;93.28
29467;BME280;60968;37.490;-122.288;2022-10-18T04:42:13;98914.38;;;14.65;93.66
29467;BME280;60968;37.490;-122.288;2022-10-18T04:45:14;98916.19;;;14.61;93.82
29467;BME280;60968;37.490;-122.288;2022-10-18T04:48:15;98914.53;;;14.58;94.28
29467;BME280;60968;37.490;-122.288;2022-10-18T04:51:16;98918.06;;;14.57;94.85
29467;BME280;60968;37.490;-122.288;2022-10-18T04:54:17;98914.72;;;14.52;94.82
29467;BME280;60968;37.490;-122.288;2022-10-18T04:57:17;98927.03;;;14.50;94.72
29467;BME280;60968;37.490;-122.288;2022-10-18T05:00:18;98925.25;;;14.51;94.95
29467;BME280;60968;37.490;-122.288;2022-10-18T05:03:19;98922.59;;;14.52;95.08
29467;BME280;60968;37.490;-122.288;2022-10-18T05:06:21;98925.16;;;14.54;95.02
29467;BME280;60968;37.490;-122.288;2022-10-18T05:09:22;98924.25;;;14.55;94.93
29467;BME280;60968;37.490;-122.288;2022-10-18T05:12:22;98933.91;;;14.54;94.89
29467;BME280;60968;37.490;-122.288;2022-10-18T05:15:23;98925.97;;;14.56;94.51
29467;BME280;60968;37.490;-122.288;2022-10-18T05:18:24;98928.59;;;14.56;94.91
29467;BME280;60968;37.490;-122.288;2022-10-18T05:21:25;98927.78;;;14.54;94.99
29467;BME280;60968;37.490;-122.288;2022-10-18T05:24:26;98933.94;;;14.53;94.89
29467;BME280;60968;37.490;-122.288;2022-10-18T05:27:28;98933.94;;;14.53;94.87
29467;BME280;60968;37.490;-122.288;2022-10-18T05:30:29;98938.22;;;14.55;94.77
29467;BME280;60968;37.490;-122.288;2022-10-18T05:33:31;98932.91;;;14.58;94.33
29467;BME280;60968;37.490;-122.288;2022-10-18T05:36:32;98935.47;;;14.60;94.43
29467;BME280;60968;37.490;-122.288;2022-10-18T05:39:33;98941.53;;;14.62;94.57
29467;BME280;60968;37.490;-122.288;2022-10-18T05:42:34;98940.66;;;14.62;94.79
29467;BME280;60968;37.490;-122.288;2022-10-18T05:45:35;98940.59;;;14.65;94.34
29467;BME280;60968;37.490;-122.288;2022-10-18T05:48:36;98940.50;;;14.68;94.23
29467;BME280;60968;37.490;-122.288;2022-10-18T05:51:37;98951.84;;;14.68;94.65
29467;BME280;60968;37.490;-122.288;2022-10-18T05:54:38;98950.97;;;14.68;94.60
29467;BME280;60968;37.490;-122.288;2022-10-18T05:57:40;98955.38;;;14.67;94.89
29467;BME280;60968;37.490;-122.288;2022-10-18T06:00:41;98949.25;;;14.67;94.91
29467;BME280;60968;37.490;-122.288;2022-10-18T06:03:41;98944.84;;;14.69;94.73
29467;BME280;60968;37.490;-122.288;2022-10-18T06:06:42;98949.19;;;14.70;94.71
29467;BME280;60968;37.490;-122.288;2022-10-18T06:09:43;98940.38;;;14.71;94.41
29467;BME280;60968;37.490;-122.288;2022-10-18T06:12:44;98937.69;;;14.72;94.49
29467;BME280;60968;37.490;-122.288;2022-10-18T06:15:45;98943.72;;;14.76;94.94
29467;BME280;60968;37.490;-122.288;2022-10-18T06:18:53;98934.00;;;14.80;94.75
29467;BME280;60968;37.490;-122.288;2022-10-18T06:21:54;98931.22;;;14.84;95.61
29467;BME280;60968;37.490;-122.288;2022-10-18T06:24:55;98935.63;;;14.84;95.42
29467;BME280;60968;37.490;-122.288;2022-10-18T06:27:55;98936.47;;;14.84;95.09
29467;BME280;60968;37.490;-122.288;2022-10-18T06:30:57;98938.94;;;14.89;94.92
29467;BME280;60968;37.490;-122.288;2022-10-18T06:33:59;98934.47;;;14.92;95.01
29467;BME280;60968;37.490;-122.288;2022-10-18T06:37:00;98929.94;;;14.96;94.59
29467;BME280;60968;37.490;-122.288;2022-10-18T06:40:01;98937.75;;;14.99;94.25
29467;BME280;60968;37.490;-122.288;2022-10-18T06:43:05;98930.72;;;15.00;94.12
29467;BME280;60968;37.490;-122.288;2022-10-18T06:46:07;98941.16;;;15.01;94.14
29467;BME280;60968;37.490;-122.288;2022-10-18T06:49:09;98939.38;;;15.02;94.17
29467;BME280;60968;37.490;-122.288;2022-10-18T06:52:10;98938.53;;;15.01;94.15
29467;BME280;60968;37.490;-122.288;2022-10-18T06:55:11;98936.81;;;15.00;93.99
29467;BME280;60968;37.490;-122.288;2022-10-18T06:58:12;98930.72;;;15.00;93.89
29467;BME280;60968;37.490;-122.288;2022-10-18T07:01:16;98929.88;;;14.98;94.59
29467;BME280;60968;37.490;-122.288;2022-10-18T07:04:18;98944.78;;;14.97;94.57
29467;BME280;60968;37.490;-122.288;2022-10-18T07:07:18;98940.44;;;14.96;94.55
29467;BME280;60968;37.490;-122.288;2022-10-18T07:10:19;98926.31;;;15.00;94.35
29467;BME280;60968;37.490;-122.288;2022-10-18T07:13:21;98939.25;;;15.06;93.85
29467;BME280;60968;37.490;-122.288;2022-10-18T07:16:22;98941.81;;;15.08;93.73
29467;BME280;60968;37.490;-122.288;2022-10-18T07:19:24;98934.78;;;15.08;93.53
29467;BME280;60968;37.490;-122.288;2022-10-18T07:22:25;98937.25;;;15.13;93.24
29467;BME280;60968;37.490;-122.288;2022-10-18T07:25:26;98945.94;;;15.15;93.03
29467;BME280;60968;37.490;-122.288;2022-10-18T07:28:28;98939.94;;;15.12;93.28
29467;BME280;60968;37.490;-122.288;2022-10-18T07:31:29;98944.44;;;15.08;92.84
29467;BME280;60968;37.490;-122.288;2022-10-18T07:34:30;98952.41;;;15.05;92.77
29467;BME280;60968;37.490;-122.288;2022-10-18T07:37:31;98946.28;;;15.04;92.39
29467;BME280;60968;37.490;-122.288;2022-10-18T07:40:32;98953.59;;;14.95;92.87
29467;BME280;60968;37.490;-122.288;2022-10-18T07:43:33;98956.44;;;14.88;93.25
29467;BME280;60968;37.490;-122.288;2022-10-18T07:46:35;98959.13;;;14.87;93.60
29467;BME280;60968;37.490;-122.288;2022-10-18T07:49:36;98960.88;;;14.86;93.88
29467;BME280;60968;37.490;-122.288;2022-10-18T07:52:36;98963.59;;;14.83;94.02
29467;BME280;60968;37.490;-122.288;2022-10-18T07:55:38;98957.66;;;14.78;94.21
29467;BME280;60968;37.490;-122.288;2022-10-18T07:58:38;98963.19;;;14.69;94.63
29467;BME280;60968;37.490;-122.288;2022-10-18T08:01:39;98956.31;;;14.65;95.42
29467;BME280;60968;37.490;-122.288;2022-10-18T08:04:40;98955.47;;;14.64;95.70
29467;BME280;60968;37.490;-122.288;2022-10-18T08:07:41;98965.09;;;14.64;95.55
29467;BME280;60968;37.490;-122.288;2022-10-18T08:10:41;98964.25;;;14.63;95.54
29467;BME280;60968;37.490;-122.288;2022-10-18T08:13:42;98960.00;;;14.57;95.47
29467;BME280;60968;37.490;-122.288;2022-10-18T08:16:45;98957.50;;;14.54;95.78
29467;BME280;60968;37.490;-122.288;2022-10-18T08:19:45;98953.31;;;14.49;96.03
29467;BME280;60968;37.490;-122.288;2022-10-18T08:22:49;98956.97;;;14.43;96.21
29467;BME280;60968;37.490;-122.288;2022-10-18T08:25:50;98949.38;;;14.34;96.41
29467;BME280;60968;37.490;-122.288;2022-10-18T08:28:51;98959.13;;;14.29;96.69
29467;BME280;60968;37.490;-122.288;2022-10-18T08:31:52;98951.28;;;14.29;96.78
29467;BME280;60968;37.490;-122.288;2022-10-18T08:34:53;98959.22;;;14.26;96.99
29467;BME280;60968;37.490;-122.288;2022-10-18T08:37:54;98960.09;;;14.26;96.99
29467;BME280;60968;37.490;-122.288;2022-10-18T08:40:55;98959.22;;;14.26;97.09
29467;BME280;60968;37.490;-122.288;2022-10-18T08:47:12;98954.41;;;14.12;98.54
29467;BME280;60968;37.490;-122.288;2022-10-18T08:50:16;98952.72;;;14.09;98.57
29467;BME280;60968;37.490;-122.288;2022-10-18T08:53:31;98951.81;;;14.10;98.88
29467;BME280;60968;37.490;-122.288;2022-10-18T08:56:34;98958.94;;;14.06;99.08
29467;BME280;60968;37.490;-122.288;2022-10-18T08:59:39;98965.06;;;14.05;99.74
29467;BME280;60968;37.490;-122.288;2022-10-18T09:05:58;98953.09;;;13.97;100.00
29467;BME280;60968;37.490;-122.288;2022-10-18T09:16:01;98961.41;;;13.81;100.00
29467;BME280;60968;37.490;-122.288;2022-10-18T09:22:13;98969.44;;;13.73;100.00
29467;BME280;60968;37.490;-122.288;2022-10-18T09:25:28;98962.47;;;13.74;100.00
29467;BME280;60968;37.490;-122.288;2022-10-18T09:36:04;98968.09;;;13.60;100.00
29467;BME280;60968;37.490;-122.288;2022-10-18T09:39:14;98965.66;;;13.52;100.00
29467;BME280;60968;37.490;-122.288;2022-10-18T09:45:30;98976.25;;;13.48;100.00
29467;BME280;60968;37.490;-122.288;2022-10-18T09:52:30;98962.28;;;13.49;100.00
29467;BME280;60968;37.490;-122.288;2022-10-18T09:55:41;98959.72;;;13.47;100.00
29467;BME280;60968;37.490;-122.288;2022-10-18T09:58:50;98965.00;;;13.44;100.00
29467;BME280;60968;37.490;-122.288;2022-10-18T10:01:52;98963.25;;;13.45;100.00
29467;BME280;60968;37.490;-122.288;2022-10-18T10:04:52;98960.78;;;13.38;100.00
29467;BME280;60968;37.490;-122.288;2022-10-18T10:07:58;98958.28;;;13.34;100.00
29467;BME280;60968;37.490;-122.288;2022-10-18T10:10:59;98962.69;;;13.32;100.00
29467;BME280;60968;37.490;-122.288;2022-10-18T10:14:32;98966.13;;;13.35;100.00
29467;BME280;60968;37.490;-122.288;2022-10-18T10:17:42;98956.50;;;13.36;100.00
29467;BME280;60968;37.490;-122.288;2022-10-18T10:21:04;98958.13;;;13.40;100.00
29467;BME280;60968;37.490;-122.288;2022-10-18T10:24:57;98954.63;;;13.41;100.00
29467;BME280;60968;37.490;-122.288;2022-10-18T10:27:43;98957.19;;;13.43;100.00
29467;BME280;60968;37.490;-122.288;2022-10-18T10:30:44;98948.38;;;13.47;100.00
29467;BME280;60968;37.490;-122.288;2022-10-18T10:33:46;98952.56;;;13.52;100.00
29467;BME280;60968;37.490;-122.288;2022-10-18T10:36:52;98958.69;;;13.51;100.00
29467;BME280;60968;37.490;-122.288;2022-10-18T10:46:14;98967.34;;;13.55;100.00
29467;BME280;60968;37.490;-122.288;2022-10-18T10:49:21;98962.16;;;13.53;100.00
29467;BME280;60968;37.490;-122.288;2022-10-18T10:52:25;98961.38;;;13.50;100.00
29467;BME280;60968;37.490;-122.288;2022-10-18T10:55:32;98952.66;;;13.49;100.00
29467;BME280;60968;37.490;-122.288;2022-10-18T10:58:37;98953.50;;;13.50;100.00
29467;BME280;60968;37.490;-122.288;2022-10-18T11:01:40;98951.78;;;13.50;100.00
29467;BME280;60968;37.490;-122.288;2022-10-18T11:04:41;98954.38;;;13.50;100.00
29467;BME280;60968;37.490;-122.288;2022-10-18T11:07:46;98950.94;;;13.48;100.00
29467;BME280;60968;37.490;-122.288;2022-10-18T11:11:22;98943.16;;;13.45;100.00
29467;BME280;60968;37.490;-122.288;2022-10-18T11:14:28;98954.63;;;13.41;100.00
29467;BME280;60968;37.490;-122.288;2022-10-18T11:17:38;98948.53;;;13.41;100.00
29467;BME280;60968;37.490;-122.288;2022-10-18T11:21:05;98952.97;;;13.37;100.00
29467;BME280;60968;37.490;-122.288;2022-10-18T11:24:08;98952.97;;;13.37;100.00
29467;BME280;60968;37.490;-122.288;2022-10-18T11:30:54;98946.03;;;13.34;100.00
29467;BME280;60968;37.490;-122.288;2022-10-18T11:47:36;98949.66;;;13.29;100.00
29467;BME280;60968;37.490;-122.288;2022-10-18T11:57:44;98962.84;;;13.26;100.00
29467;BME280;60968;37.490;-122.288;2022-10-18T12:04:13;98961.13;;;13.25;100.00
29467;BME280;60968;37.490;-122.288;2022-10-18T12:07:16;98970.78;;;13.23;100.00
29467;BME280;60968;37.490;-122.288;2022-10-18T12:10:19;98964.69;;;13.22;100.00
29467;BME280;60968;37.490;-122.288;2022-10-18T12:17:31;98972.75;;;13.13;100.00
29467;BME280;60968;37.490;-122.288;2022-10-18T12:20:44;98971.91;;;13.12;100.00
29467;BME280;60968;37.490;-122.288;2022-10-18T12:24:11;98975.34;;;13.14;100.00
29467;BME280;60968;37.490;-122.288;2022-10-18T12:27:14;98971.06;;;13.10;100.00
29467;BME280;60968;37.490;-122.288;2022-10-18T12:30:26;98977.97;;;13.14;100.00
29467;BME280;60968;37.490;-122.288;2022-10-18T12:33:37;98982.34;;;13.14;100.00
29467;BME280;60968;37.490;-122.288;2022-10-18T12:37:27;98979.72;;;13.14;100.00
29467;BME280;60968;37.490;-122.288;2022-10-18T12:43:33;98982.16;;;13.20;100.00
29467;BME280;60968;37.490;-122.288;2022-10-18T12:53:29;98994.81;;;13.38;100.00
29467;BME280;60968;37.490;-122.288;2022-10-18T12:56:36;98995.75;;;13.34;100.00
29467;BME280;60968;37.490;-122.288;2022-10-18T13:02:40;98997.38;;;13.40;100.00
29467;BME280;60968;37.490;-122.288;2022-10-18T13:09:08;98999.78;;;13.49;100.00
29467;BME280;60968;37.490;-122.288;2022-10-18T13:15:33;99007.28;;;13.63;100.00
29467;BME280;60968;37.490;-122.288;2022-10-18T13:23:03;99013.34;;;13.64;100.00
29467;BME280;60968;37.490;-122.288;2022-10-18T13:36:23;99016.31;;;13.50;100.00
29467;BME280;60968;37.490;-122.288;2022-10-18T13:39:25;99004.13;;;13.50;100.00
29467;BME280;60968;37.490;-122.288;2022-10-18T13:42:30;99014.78;;;13.43;100.00
29467;BME280;60968;37.490;-122.288;2022-10-18T13:51:52;99011.50;;;13.33;100.00
29467;BME280;60968;37.490;-122.288;2022-10-18T14:01:57;99018.75;;;13.21;100.00
29467;BME280;60968;37.490;-122.288;2022-10-18T14:05:18;99016.31;;;13.15;100.00
29467;BME280;60968;37.490;-122.288;2022-10-18T14:11:44;99022.44;;;13.14;100.00
29467;BME280;60968;37.490;-122.288;2022-10-18T14:15:04;99022.31;;;13.19;100.00
29467;BME280;60968;37.490;-122.288;2022-10-18T14:18:12;99030.16;;;13.19;100.00
29467;BME280;60968;37.490;-122.288;2022-10-18T14:21:24;99027.53;;;13.19;100.00
29467;BME280;60968;37.490;-122.288;2022-10-18T14:24:30;99021.50;;;13.17;100.00
29467;BME280;60968;37.490;-122.288;2022-10-18T14:27:31;99028.50;;;13.15;100.00
29467;BME280;60968;37.490;-122.288;2022-10-18T14:30:33;99037.16;;;13.18;100.00
29467;BME280;60968;37.490;-122.288;2022-10-18T14:36:39;99045.97;;;13.14;100.00
29467;BME280;60968;37.490;-122.288;2022-10-18T14:39:41;99047.63;;;13.18;100.00
29467;BME280;60968;37.490;-122.288;2022-10-18T14:42:47;99050.19;;;13.20;100.00
29467;BME280;60968;37.490;-122.288;2022-10-18T14:45:49;99060.56;;;13.23;100.00
29467;BME280;60968;37.490;-122.288;2022-10-18T14:49:00;99050.91;;;13.27;100.00
29467;BME280;60968;37.490;-122.288;2022-10-18T14:52:03;99061.34;;;13.28;100.00
29467;BME280;60968;37.490;-122.288;2022-10-18T14:55:06;99056.84;;;13.35;100.00
29467;BME280;60968;37.490;-122.288;2022-10-18T14:58:15;99063.72;;;13.39;100.00
29467;BME280;60968;37.490;-122.288;2022-10-18T15:01:20;99073.22;;;13.43;100.00
29467;BME280;60968;37.490;-122.288;2022-10-18T15:04:24;99073.22;;;13.43;100.00
29467;BME280;60968;37.490;-122.288;2022-10-18T15:07:27;99072.31;;;13.44;100.00
29467;BME280;60968;37.490;-122.288;2022-10-18T15:10:31;99076.66;;;13.45;100.00
29467;BME280;60968;37.490;-122.288;2022-10-18T15:13:34;99093.19;;;13.47;100.00
29467;BME280;60968;37.490;-122.288;2022-10-18T15:16:37;99102.66;;;13.51;100.00
29467;BME280;60968;37.490;-122.288;2022-10-18T15:19:52;99104.41;;;13.52;100.00
29467;BME280;60968;37.490;-122.288;2022-10-18T15:23:22;99105.06;;;13.61;100.00
29467;BME280;60968;37.490;-122.288;2022-10-18T15:26:28;99112.56;;;13.75;100.00
29467;BME280;60968;37.490;-122.288;2022-10-18T15:29:30;99117.41;;;13.90;100.00
29467;BME280;60968;37.490;-122.288;2022-10-18T15:32:31;99120.88;;;14.25;100.00
29467;BME280;60968;37.490;-122.288;2022-10-18T15:35:34;99124.41;;;14.54;100.00
29467;BME280;60968;37.490;-122.288;2022-10-18T15:38:36;99121.72;;;14.88;100.00
29467;BME280;60968;37.490;-122.288;2022-10-18T15:41:41;99126.91;;;15.18;100.00
29467;BME280;60968;37.490;-122.288;2022-10-18T15:44:49;99133.81;;;15.49;100.00
29467;BME280;60968;37.490;-122.288;2022-10-18T15:54:29;99140.16;;;16.22;100.00
29467;BME280;60968;37.490;-122.288;2022-10-18T15:57:30;99144.16;;;16.33;100.00
29467;BME280;60968;37.490;-122.288;2022-10-18T16:00:31;99142.31;;;16.36;100.00
29467;BME280;60968;37.490;-122.288;2022-10-18T16:03:33;99147.06;;;16.50;100.00
29467;BME280;60968;37.490;-122.288;2022-10-18T16:06:35;99146.22;;;16.73;100.00
29467;BME280;60968;37.490;-122.288;2022-10-18T16:09:37;99140.41;;;16.89;100.00
29467;BME280;60968;37.490;-122.288;2022-10-18T16:12:38;99142.38;;;17.06;98.38
29467;BME280;60968;37.490;-122.288;2022-10-18T16:15:39;99145.03;;;17.28;97.47
29467;BME280;60968;37.490;-122.288;2022-10-18T16:18:40;99134.59;;;17.48;93.29
29467;BME280;60968;37.490;-122.288;2022-10-18T16:21:41;99145.22;;;17.67;89.70
29467;BME280;60968;37.490;-122.288;2022-10-18T16:24:42;99140.97;;;17.86;89.00
29467;BME280;60968;37.490;-122.288;2022-10-18T16:27:43;99145.00;;;17.94;89.15
29467;BME280;60968;37.490;-122.288;2022-10-18T16:30:54;99142.78;;;18.06;87.35
29467;BME280;60968;37.490;-122.288;2022-10-18T16:33:56;99150.97;;;18.20;86.21
29467;BME280;60968;37.490;-122.288;2022-10-18T16:36:57;99156.50;;;18.34;84.62
29467;BME280;60968;37.490;-122.288;2022-10-18T16:39:58;99153.28;;;18.86;80.90
29467;BME280;60968;37.490;-122.288;2022-10-18T16:42:59;99159.63;;;19.03;79.93
29467;BME280;60968;37.490;-122.288;2022-10-18T16:46:00;99160.66;;;19.37;79.27
29467;BME280;60968;37.490;-122.288;2022-10-18T16:49:02;99163.06;;;20.48;74.21
29467;BME280;60968;37.490;-122.288;2022-10-18T16:52:03;99157.59;;;22.99;65.87
29467;BME280;60968;37.490;-122.288;2022-10-18T16:55:04;99151.44;;;23.95;62.07
29467;BME280;60968;37.490;-122.288;2022-10-18T16:58:06;99149.72;;;27.21;52.15
29467;BME280;60968;37.490;-122.288;2022-10-18T17:01:13;99143.66;;;29.50;45.18
29467;BME280;60968;37.490;-122.288;2022-10-18T17:04:14;99141.25;;;30.25;42.15
29467;BME280;60968;37.490;-122.288;2022-10-18T17:07:23;99144.09;;;30.71;39.30
29467;BME280;60968;37.490;-122.288;2022-10-18T17:10:24;99138.41;;;30.37;39.00
29467;BME280;60968;37.490;-122.288;2022-10-18T17:13:25;99132.72;;;31.15;37.80
29467;BME280;60968;37.490;-122.288;2022-10-18T17:16:30;99142.75;;;30.48;36.78
29467;BME280;60968;37.490;-122.288;2022-10-18T17:19:31;99129.81;;;31.26;36.21
29467;BME280;60968;37.490;-122.288;2022-10-18T17:22:32;99134.69;;;31.41;35.54
29467;BME280;60968;37.490;-122.288;2022-10-18T17:25:37;99131.66;;;31.72;35.50
29467;BME280;60968;37.490;-122.288;2022-10-18T17:28:38;99131.13;;;29.90;37.88
29467;BME280;60968;37.490;-122.288;2022-10-18T17:31:38;99134.03;;;26.15;44.67
29467;BME280;60968;37.490;-122.288;2022-10-18T17:34:39;99133.47;;;24.11;50.80
29467;BME280;60968;37.490;-122.288;2022-10-18T17:37:40;99132.94;;;23.39;54.10
29467;BME280;60968;37.490;-122.288;2022-10-18T17:40:43;99140.13;;;23.09;55.23
29467;BME280;60968;37.490;-122.288;2022-10-18T17:43:43;99135.94;;;23.05;55.65
29467;BME280;60968;37.490;-122.288;2022-10-18T17:46:44;99130.78;;;22.60;57.53
29467;BME280;60968;37.490;-122.288;2022-10-18T17:49:45;99132.56;;;22.89;57.33
29467;BME280;60968;37.490;-122.288;2022-10-18T17:52:46;99131.44;;;23.62;55.09
29467;BME280;60968;37.490;-122.288;2022-10-18T17:55:48;99129.41;;;23.93;54.11
29467;BME280;60968;37.490;-122.288;2022-10-18T17:58:50;99124.56;;;23.85;54.16
29467;BME280;60968;37.490;-122.288;2022-10-18T18:01:50;99125.81;;;24.07;53.48